sensor_id;sensor_type;location;lat;lon;timestamp;temperature;humidity
8261;DHT22;64115;50.170;8.242;2023-12-22T00:02:02;2.80;99.90
8261;DHT22;64115;50.170;8.242;2023-12-22T00:04:29;2.80;99.90
8261;DHT22;64115;50.170;8.242;2023-12-22T00:06:57;2.80;99.90
8261;DHT22;64115;50.170;8.242;2023-12-22T00:09:24;2.80;99.90
8261;DHT22;64115;50.170;8.242;2023-12-22T00:11:51;2.80;99.90
8261;DHT22;64115;50.170;8.242;2023-12-22T00:14:17;2.90;99.90
8261;DHT22;64115;50.170;8.242;2023-12-22T00:16:44;3.00;99.90
8261;DHT22;64115;50.170;8.242;2023-12-22T00:19:11;3.00;99.90
8261;DHT22;64115;50.170;8.242;2023-12-22T00:21:38;3.00;99.90
8261;DHT22;64115;50.170;8.242;2023-12-22T00:24:06;3.00;99.90
8261;DHT22;64115;50.170;8.242;2023-12-22T00:26:33;3.10;99.90
8261;DHT22;64115;50.170;8.242;2023-12-22T00:29:00;3.10;99.90
8261;DHT22;64115;50.170;8.242;2023-12-22T00:31:26;3.10;99.90
8261;DHT22;64115;50.170;8.242;2023-12-22T00:33:53;3.20;99.90
8261;DHT22;64115;50.170;8.242;2023-12-22T00:36:20;3.20;99.90
8261;DHT22;64115;50.170;8.242;2023-12-22T00:38:49;3.10;99.90
8261;DHT22;64115;50.170;8.242;2023-12-22T00:41:17;3.20;99.90
8261;DHT22;64115;50.170;8.242;2023-12-22T00:43:44;3.10;99.90
8261;DHT22;64115;50.170;8.242;2023-12-22T00:46:11;3.10;99.90
8261;DHT22;64115;50.170;8.242;2023-12-22T00:48:39;3.10;99.90
8261;DHT22;64115;50.170;8.242;2023-12-22T00:51:06;3.10;99.90
8261;DHT22;64115;50.170;8.242;2023-12-22T00:53:33;3.10;99.90
8261;DHT22;64115;50.170;8.242;2023-12-22T00:56:00;3.10;99.90
8261;DHT22;64115;50.170;8.242;2023-12-22T00:58:28;3.10;99.90
8261;DHT22;64115;50.170;8.242;2023-12-22T01:00:55;3.10;99.90
8261;DHT22;64115;50.170;8.242;2023-12-22T01:03:22;3.10;99.90
8261;DHT22;64115;50.170;8.242;2023-12-22T01:05:48;3.20;99.90
8261;DHT22;64115;50.170;8.242;2023-12-22T01:08:15;3.20;99.90
8261;DHT22;64115;50.170;8.242;2023-12-22T01:10:42;3.20;99.90
8261;DHT22;64115;50.170;8.242;2023-12-22T01:13:09;3.40;99.90
8261;DHT22;64115;50.170;8.242;2023-12-22T01:15:37;3.40;99.90
8261;DHT22;64115;50.170;8.242;2023-12-22T01:18:04;3.40;99.90
8261;DHT22;64115;50.170;8.242;2023-12-22T01:20:30;3.40;99.90
8261;DHT22;64115;50.170;8.242;2023-12-22T01:22:57;3.40;99.90
8261;DHT22;64115;50.170;8.242;2023-12-22T01:25:24;3.40;99.90
8261;DHT22;64115;50.170;8.242;2023-12-22T01:27:51;3.50;99.90
8261;DHT22;64115;50.170;8.242;2023-12-22T01:30:17;3.50;99.90
8261;DHT22;64115;50.170;8.242;2023-12-22T01:32:45;3.50;99.90
8261;DHT22;64115;50.170;8.242;2023-12-22T01:35:12;3.40;99.90
8261;DHT22;64115;50.170;8.242;2023-12-22T01:37:39;3.30;99.90
8261;DHT22;64115;50.170;8.242;2023-12-22T01:40:07;3.20;99.90
8261;DHT22;64115;50.170;8.242;2023-12-22T01:42:34;3.00;99.90
8261;DHT22;64115;50.170;8.242;2023-12-22T01:45:01;3.00;99.90
8261;DHT22;64115;50.170;8.242;2023-12-22T01:47:28;2.90;99.90
8261;DHT22;64115;50.170;8.242;2023-12-22T01:49:56;2.80;99.90
8261;DHT22;64115;50.170;8.242;2023-12-22T01:52:23;2.70;99.90
8261;DHT22;64115;50.170;8.242;2023-12-22T01:54:51;2.60;99.90
8261;DHT22;64115;50.170;8.242;2023-12-22T01:57:18;2.50;99.90
8261;DHT22;64115;50.170;8.242;2023-12-22T01:59:46;2.50;99.90
8261;DHT22;64115;50.170;8.242;2023-12-22T02:02:14;2.50;99.90
8261;DHT22;64115;50.170;8.242;2023-12-22T02:04:41;2.50;99.90
8261;DHT22;64115;50.170;8.242;2023-12-22T02:07:09;2.50;99.90
8261;DHT22;64115;50.170;8.242;2023-12-22T02:09:36;2.60;99.90
8261;DHT22;64115;50.170;8.242;2023-12-22T02:12:04;2.70;99.90
8261;DHT22;64115;50.170;8.242;2023-12-22T02:14:31;2.70;99.90
8261;DHT22;64115;50.170;8.242;2023-12-22T02:17:04;2.70;99.90
8261;DHT22;64115;50.170;8.242;2023-12-22T02:19:40;2.70;99.90
8261;DHT22;64115;50.170;8.242;2023-12-22T02:22:10;2.70;99.90
8261;DHT22;64115;50.170;8.242;2023-12-22T02:24:40;2.80;99.90
8261;DHT22;64115;50.170;8.242;2023-12-22T02:27:17;2.80;99.90
8261;DHT22;64115;50.170;8.242;2023-12-22T02:29:51;2.80;99.90
8261;DHT22;64115;50.170;8.242;2023-12-22T02:32:22;2.90;99.90
8261;DHT22;64115;50.170;8.242;2023-12-22T02:34:51;2.90;99.90
8261;DHT22;64115;50.170;8.242;2023-12-22T02:37:20;2.90;99.90
8261;DHT22;64115;50.170;8.242;2023-12-22T02:39:49;3.00;99.90
8261;DHT22;64115;50.170;8.242;2023-12-22T02:42:17;3.00;99.90
8261;DHT22;64115;50.170;8.242;2023-12-22T02:44:45;3.10;99.90
8261;DHT22;64115;50.170;8.242;2023-12-22T02:47:12;3.10;99.90
8261;DHT22;64115;50.170;8.242;2023-12-22T02:49:38;3.10;99.90
8261;DHT22;64115;50.170;8.242;2023-12-22T02:52:05;3.20;99.90
8261;DHT22;64115;50.170;8.242;2023-12-22T02:54:32;3.10;99.90
8261;DHT22;64115;50.170;8.242;2023-12-22T02:57:00;3.10;99.90
8261;DHT22;64115;50.170;8.242;2023-12-22T02:59:27;3.20;99.90
8261;DHT22;64115;50.170;8.242;2023-12-22T03:01:54;3.20;99.90
8261;DHT22;64115;50.170;8.242;2023-12-22T03:04:20;3.20;99.90
8261;DHT22;64115;50.170;8.242;2023-12-22T03:06:47;3.20;99.90
8261;DHT22;64115;50.170;8.242;2023-12-22T03:09:14;3.20;99.90
8261;DHT22;64115;50.170;8.242;2023-12-22T03:11:41;3.30;99.90
8261;DHT22;64115;50.170;8.242;2023-12-22T03:14:09;3.30;99.90
8261;DHT22;64115;50.170;8.242;2023-12-22T03:16:35;3.30;99.90
8261;DHT22;64115;50.170;8.242;2023-12-22T03:19:02;3.30;99.90
8261;DHT22;64115;50.170;8.242;2023-12-22T03:21:29;3.30;99.90
8261;DHT22;64115;50.170;8.242;2023-12-22T03:23:56;3.40;99.90
8261;DHT22;64115;50.170;8.242;2023-12-22T03:26:22;3.40;99.90
8261;DHT22;64115;50.170;8.242;2023-12-22T03:28:49;3.40;99.90
8261;DHT22;64115;50.170;8.242;2023-12-22T03:31:17;3.40;99.90
8261;DHT22;64115;50.170;8.242;2023-12-22T03:33:44;3.50;99.90
8261;DHT22;64115;50.170;8.242;2023-12-22T03:36:10;3.50;99.90
8261;DHT22;64115;50.170;8.242;2023-12-22T03:38:37;3.50;99.90
8261;DHT22;64115;50.170;8.242;2023-12-22T03:41:04;3.40;99.90
8261;DHT22;64115;50.170;8.242;2023-12-22T03:43:31;3.40;99.90
8261;DHT22;64115;50.170;8.242;2023-12-22T03:45:57;3.50;99.90
8261;DHT22;64115;50.170;8.242;2023-12-22T03:48:26;3.50;99.90
8261;DHT22;64115;50.170;8.242;2023-12-22T03:50:52;3.50;99.90
8261;DHT22;64115;50.170;8.242;2023-12-22T03:53:19;3.50;99.90
8261;DHT22;64115;50.170;8.242;2023-12-22T03:55:46;3.40;99.90
8261;DHT22;64115;50.170;8.242;2023-12-22T03:58:12;3.50;99.90
8261;DHT22;64115;50.170;8.242;2023-12-22T04:00:39;3.50;99.90
8261;DHT22;64115;50.170;8.242;2023-12-22T04:03:06;3.60;99.90
8261;DHT22;64115;50.170;8.242;2023-12-22T04:05:34;3.60;99.90
8261;DHT22;64115;50.170;8.242;2023-12-22T04:08:01;3.60;99.90
8261;DHT22;64115;50.170;8.242;2023-12-22T04:10:26;3.60;99.90
8261;DHT22;64115;50.170;8.242;2023-12-22T04:12:53;3.70;99.90
8261;DHT22;64115;50.170;8.242;2023-12-22T04:15:20;3.70;99.90
8261;DHT22;64115;50.170;8.242;2023-12-22T04:17:47;3.70;99.90
8261;DHT22;64115;50.170;8.242;2023-12-22T04:20:14;3.80;99.90
8261;DHT22;64115;50.170;8.242;2023-12-22T04:22:42;3.80;99.90
8261;DHT22;64115;50.170;8.242;2023-12-22T04:25:09;3.80;99.90
8261;DHT22;64115;50.170;8.242;2023-12-22T04:27:36;3.80;99.90
8261;DHT22;64115;50.170;8.242;2023-12-22T04:30:03;3.90;99.90
8261;DHT22;64115;50.170;8.242;2023-12-22T04:32:30;3.90;99.90
8261;DHT22;64115;50.170;8.242;2023-12-22T04:34:57;3.90;99.90
8261;DHT22;64115;50.170;8.242;2023-12-22T04:37:24;3.90;99.90
8261;DHT22;64115;50.170;8.242;2023-12-22T04:39:52;3.90;99.90
8261;DHT22;64115;50.170;8.242;2023-12-22T04:42:19;3.90;99.90
8261;DHT22;64115;50.170;8.242;2023-12-22T04:44:45;3.90;99.90
8261;DHT22;64115;50.170;8.242;2023-12-22T04:47:12;3.90;99.90
8261;DHT22;64115;50.170;8.242;2023-12-22T04:49:39;3.90;99.90
8261;DHT22;64115;50.170;8.242;2023-12-22T04:52:06;3.90;99.90
8261;DHT22;64115;50.170;8.242;2023-12-22T04:54:33;4.00;99.90
8261;DHT22;64115;50.170;8.242;2023-12-22T04:57:01;4.00;99.90
8261;DHT22;64115;50.170;8.242;2023-12-22T04:59:27;4.00;99.90
8261;DHT22;64115;50.170;8.242;2023-12-22T05:01:53;4.00;99.90
8261;DHT22;64115;50.170;8.242;2023-12-22T05:04:20;4.00;99.90
8261;DHT22;64115;50.170;8.242;2023-12-22T05:06:47;4.00;99.90
8261;DHT22;64115;50.170;8.242;2023-12-22T05:09:14;4.00;99.90
8261;DHT22;64115;50.170;8.242;2023-12-22T05:11:41;3.90;99.90
8261;DHT22;64115;50.170;8.242;2023-12-22T05:14:09;4.00;99.90
8261;DHT22;64115;50.170;8.242;2023-12-22T05:16:36;3.90;99.90
8261;DHT22;64115;50.170;8.242;2023-12-22T05:19:03;3.90;99.90
8261;DHT22;64115;50.170;8.242;2023-12-22T05:21:29;4.00;99.90
8261;DHT22;64115;50.170;8.242;2023-12-22T05:23:56;3.90;99.90
8261;DHT22;64115;50.170;8.242;2023-12-22T05:26:24;3.90;99.90
8261;DHT22;64115;50.170;8.242;2023-12-22T05:28:55;3.90;99.90
8261;DHT22;64115;50.170;8.242;2023-12-22T05:31:23;3.90;99.90
8261;DHT22;64115;50.170;8.242;2023-12-22T05:33:50;3.90;99.90
8261;DHT22;64115;50.170;8.242;2023-12-22T05:36:17;3.90;99.90
8261;DHT22;64115;50.170;8.242;2023-12-22T05:38:44;3.90;99.90
8261;DHT22;64115;50.170;8.242;2023-12-22T05:41:11;3.90;99.90
8261;DHT22;64115;50.170;8.242;2023-12-22T05:43:38;4.00;99.90
8261;DHT22;64115;50.170;8.242;2023-12-22T05:46:04;4.00;99.90
8261;DHT22;64115;50.170;8.242;2023-12-22T05:48:34;4.00;99.90
8261;DHT22;64115;50.170;8.242;2023-12-22T05:51:00;3.90;99.90
8261;DHT22;64115;50.170;8.242;2023-12-22T05:53:28;3.90;99.90
8261;DHT22;64115;50.170;8.242;2023-12-22T05:55:55;4.00;99.90
8261;DHT22;64115;50.170;8.242;2023-12-22T05:58:22;4.00;99.90
8261;DHT22;64115;50.170;8.242;2023-12-22T06:00:49;4.00;99.90
8261;DHT22;64115;50.170;8.242;2023-12-22T06:03:15;4.00;99.90
8261;DHT22;64115;50.170;8.242;2023-12-22T06:05:43;4.00;99.90
8261;DHT22;64115;50.170;8.242;2023-12-22T06:08:10;4.10;99.90
8261;DHT22;64115;50.170;8.242;2023-12-22T06:10:37;4.10;99.90
8261;DHT22;64115;50.170;8.242;2023-12-22T06:13:04;4.10;99.90
8261;DHT22;64115;50.170;8.242;2023-12-22T06:15:32;4.20;99.90
8261;DHT22;64115;50.170;8.242;2023-12-22T06:17:58;4.10;99.90
8261;DHT22;64115;50.170;8.242;2023-12-22T06:20:25;4.20;99.90
8261;DHT22;64115;50.170;8.242;2023-12-22T06:22:53;4.20;99.90
8261;DHT22;64115;50.170;8.242;2023-12-22T06:25:20;4.20;99.90
8261;DHT22;64115;50.170;8.242;2023-12-22T06:27:47;4.20;99.90
8261;DHT22;64115;50.170;8.242;2023-12-22T06:30:14;4.20;99.90
8261;DHT22;64115;50.170;8.242;2023-12-22T06:32:40;4.30;99.90
8261;DHT22;64115;50.170;8.242;2023-12-22T06:35:08;4.30;99.90
8261;DHT22;64115;50.170;8.242;2023-12-22T06:37:36;4.20;99.90
8261;DHT22;64115;50.170;8.242;2023-12-22T06:40:05;4.20;99.90
8261;DHT22;64115;50.170;8.242;2023-12-22T06:42:32;4.20;99.90
8261;DHT22;64115;50.170;8.242;2023-12-22T06:44:59;4.20;99.90
8261;DHT22;64115;50.170;8.242;2023-12-22T06:47:25;4.20;99.90
8261;DHT22;64115;50.170;8.242;2023-12-22T06:49:53;4.20;99.90
8261;DHT22;64115;50.170;8.242;2023-12-22T06:52:19;4.20;99.90
8261;DHT22;64115;50.170;8.242;2023-12-22T06:54:46;4.20;99.90
8261;DHT22;64115;50.170;8.242;2023-12-22T06:57:14;4.30;99.90
8261;DHT22;64115;50.170;8.242;2023-12-22T06:59:42;4.20;99.90
8261;DHT22;64115;50.170;8.242;2023-12-22T07:02:08;4.30;99.90
8261;DHT22;64115;50.170;8.242;2023-12-22T07:05:01;4.30;99.90
8261;DHT22;64115;50.170;8.242;2023-12-22T07:07:32;4.40;99.90
8261;DHT22;64115;50.170;8.242;2023-12-22T07:09:59;4.40;99.90
8261;DHT22;64115;50.170;8.242;2023-12-22T07:12:27;4.50;99.90
8261;DHT22;64115;50.170;8.242;2023-12-22T07:14:54;4.50;99.90
8261;DHT22;64115;50.170;8.242;2023-12-22T07:17:21;4.50;99.90
8261;DHT22;64115;50.170;8.242;2023-12-22T07:19:47;4.50;99.90
8261;DHT22;64115;50.170;8.242;2023-12-22T07:22:17;4.50;99.90
8261;DHT22;64115;50.170;8.242;2023-12-22T07:24:44;4.60;99.90
8261;DHT22;64115;50.170;8.242;2023-12-22T07:27:11;4.60;99.90
8261;DHT22;64115;50.170;8.242;2023-12-22T07:29:39;4.60;99.90
8261;DHT22;64115;50.170;8.242;2023-12-22T07:32:06;4.60;99.90
8261;DHT22;64115;50.170;8.242;2023-12-22T07:34:33;4.60;99.90
8261;DHT22;64115;50.170;8.242;2023-12-22T07:37:00;4.70;99.90
8261;DHT22;64115;50.170;8.242;2023-12-22T07:39:26;4.70;99.90
8261;DHT22;64115;50.170;8.242;2023-12-22T07:41:53;4.60;99.90
8261;DHT22;64115;50.170;8.242;2023-12-22T07:44:20;4.60;99.90
8261;DHT22;64115;50.170;8.242;2023-12-22T07:46:55;4.60;99.90
8261;DHT22;64115;50.170;8.242;2023-12-22T07:49:22;4.60;99.90
8261;DHT22;64115;50.170;8.242;2023-12-22T07:51:52;4.60;99.90
8261;DHT22;64115;50.170;8.242;2023-12-22T07:54:19;4.70;99.90
8261;DHT22;64115;50.170;8.242;2023-12-22T07:56:46;4.70;99.90
8261;DHT22;64115;50.170;8.242;2023-12-22T07:59:13;4.70;99.90
8261;DHT22;64115;50.170;8.242;2023-12-22T08:01:42;4.70;99.90
8261;DHT22;64115;50.170;8.242;2023-12-22T08:04:10;4.80;99.90
8261;DHT22;64115;50.170;8.242;2023-12-22T08:06:37;4.80;99.90
8261;DHT22;64115;50.170;8.242;2023-12-22T08:09:03;4.70;99.90
8261;DHT22;64115;50.170;8.242;2023-12-22T08:11:31;4.60;99.90
8261;DHT22;64115;50.170;8.242;2023-12-22T08:13:58;4.60;99.90
8261;DHT22;64115;50.170;8.242;2023-12-22T08:16:25;4.60;99.90
8261;DHT22;64115;50.170;8.242;2023-12-22T08:18:51;4.50;99.90
8261;DHT22;64115;50.170;8.242;2023-12-22T08:21:20;4.40;99.90
8261;DHT22;64115;50.170;8.242;2023-12-22T08:23:47;4.30;99.90
8261;DHT22;64115;50.170;8.242;2023-12-22T08:26:13;4.30;99.90
8261;DHT22;64115;50.170;8.242;2023-12-22T08:28:42;4.30;99.90
8261;DHT22;64115;50.170;8.242;2023-12-22T08:31:09;4.30;99.90
8261;DHT22;64115;50.170;8.242;2023-12-22T08:33:37;4.10;99.90
8261;DHT22;64115;50.170;8.242;2023-12-22T08:36:06;4.10;99.90
8261;DHT22;64115;50.170;8.242;2023-12-22T08:38:34;4.10;99.90
8261;DHT22;64115;50.170;8.242;2023-12-22T08:41:02;4.20;99.90
8261;DHT22;64115;50.170;8.242;2023-12-22T08:43:29;4.20;99.90
8261;DHT22;64115;50.170;8.242;2023-12-22T08:45:56;4.20;99.90
8261;DHT22;64115;50.170;8.242;2023-12-22T08:48:22;4.20;99.90
8261;DHT22;64115;50.170;8.242;2023-12-22T08:50:49;4.20;99.90
8261;DHT22;64115;50.170;8.242;2023-12-22T08:53:16;4.10;99.90
8261;DHT22;64115;50.170;8.242;2023-12-22T08:55:44;4.10;99.90
8261;DHT22;64115;50.170;8.242;2023-12-22T08:58:11;4.10;99.90
8261;DHT22;64115;50.170;8.242;2023-12-22T09:00:38;4.10;99.90
8261;DHT22;64115;50.170;8.242;2023-12-22T09:03:04;4.10;99.90
8261;DHT22;64115;50.170;8.242;2023-12-22T09:05:31;4.10;99.90
8261;DHT22;64115;50.170;8.242;2023-12-22T09:07:58;4.20;99.90
8261;DHT22;64115;50.170;8.242;2023-12-22T09:10:25;4.20;99.90
8261;DHT22;64115;50.170;8.242;2023-12-22T09:12:53;4.20;99.90
8261;DHT22;64115;50.170;8.242;2023-12-22T09:15:20;4.20;99.90
8261;DHT22;64115;50.170;8.242;2023-12-22T09:17:46;4.20;99.90
8261;DHT22;64115;50.170;8.242;2023-12-22T09:20:13;4.30;99.90
8261;DHT22;64115;50.170;8.242;2023-12-22T09:22:40;4.30;99.90
8261;DHT22;64115;50.170;8.242;2023-12-22T09:25:07;4.30;99.90
8261;DHT22;64115;50.170;8.242;2023-12-22T09:27:34;4.40;99.90
8261;DHT22;64115;50.170;8.242;2023-12-22T09:30:03;4.50;99.90
8261;DHT22;64115;50.170;8.242;2023-12-22T09:32:32;4.60;99.90
8261;DHT22;64115;50.170;8.242;2023-12-22T09:34:59;4.60;99.90
8261;DHT22;64115;50.170;8.242;2023-12-22T09:37:26;4.70;99.90
8261;DHT22;64115;50.170;8.242;2023-12-22T09:39:53;4.70;99.90
8261;DHT22;64115;50.170;8.242;2023-12-22T09:42:20;4.80;99.90
8261;DHT22;64115;50.170;8.242;2023-12-22T09:44:49;4.80;99.90
8261;DHT22;64115;50.170;8.242;2023-12-22T09:47:19;4.80;99.90
8261;DHT22;64115;50.170;8.242;2023-12-22T09:49:47;4.90;99.90
8261;DHT22;64115;50.170;8.242;2023-12-22T09:52:15;4.90;99.90
8261;DHT22;64115;50.170;8.242;2023-12-22T09:54:43;5.00;99.90
8261;DHT22;64115;50.170;8.242;2023-12-22T09:57:11;5.00;99.90
8261;DHT22;64115;50.170;8.242;2023-12-22T09:59:38;5.10;99.90
8261;DHT22;64115;50.170;8.242;2023-12-22T10:02:06;5.10;99.90
8261;DHT22;64115;50.170;8.242;2023-12-22T10:04:35;5.10;99.90
8261;DHT22;64115;50.170;8.242;2023-12-22T10:07:03;5.20;99.90
8261;DHT22;64115;50.170;8.242;2023-12-22T10:09:31;5.20;99.90
8261;DHT22;64115;50.170;8.242;2023-12-22T10:11:59;5.20;99.90
8261;DHT22;64115;50.170;8.242;2023-12-22T10:14:28;5.20;99.90
8261;DHT22;64115;50.170;8.242;2023-12-22T10:16:56;5.30;99.90
8261;DHT22;64115;50.170;8.242;2023-12-22T10:19:22;5.30;99.90
8261;DHT22;64115;50.170;8.242;2023-12-22T10:21:50;5.30;99.90
8261;DHT22;64115;50.170;8.242;2023-12-22T10:24:36;5.30;99.90
8261;DHT22;64115;50.170;8.242;2023-12-22T10:27:03;5.30;99.90
8261;DHT22;64115;50.170;8.242;2023-12-22T10:29:30;5.40;99.90
8261;DHT22;64115;50.170;8.242;2023-12-22T10:31:58;5.40;99.90
8261;DHT22;64115;50.170;8.242;2023-12-22T10:34:24;5.40;99.90
8261;DHT22;64115;50.170;8.242;2023-12-22T10:36:53;5.50;99.90
8261;DHT22;64115;50.170;8.242;2023-12-22T10:39:19;5.50;99.90
8261;DHT22;64115;50.170;8.242;2023-12-22T10:41:48;5.50;99.90
8261;DHT22;64115;50.170;8.242;2023-12-22T10:44:15;5.60;99.90
8261;DHT22;64115;50.170;8.242;2023-12-22T10:46:42;5.60;99.90
8261;DHT22;64115;50.170;8.242;2023-12-22T10:49:09;5.70;99.90
8261;DHT22;64115;50.170;8.242;2023-12-22T10:51:36;5.70;99.90
8261;DHT22;64115;50.170;8.242;2023-12-22T10:54:05;5.70;99.90
8261;DHT22;64115;50.170;8.242;2023-12-22T10:56:32;5.70;99.90
8261;DHT22;64115;50.170;8.242;2023-12-22T10:58:59;5.80;99.90
8261;DHT22;64115;50.170;8.242;2023-12-22T11:01:28;5.80;99.90
8261;DHT22;64115;50.170;8.242;2023-12-22T11:03:58;5.80;99.90
8261;DHT22;64115;50.170;8.242;2023-12-22T11:06:27;5.80;99.90
8261;DHT22;64115;50.170;8.242;2023-12-22T11:08:56;5.80;99.90
8261;DHT22;64115;50.170;8.242;2023-12-22T11:11:27;5.80;99.90
8261;DHT22;64115;50.170;8.242;2023-12-22T11:13:57;5.90;99.90
8261;DHT22;64115;50.170;8.242;2023-12-22T11:16:24;5.80;99.90
8261;DHT22;64115;50.170;8.242;2023-12-22T11:18:54;5.80;99.90
8261;DHT22;64115;50.170;8.242;2023-12-22T11:21:22;5.90;99.90
8261;DHT22;64115;50.170;8.242;2023-12-22T11:23:50;5.90;99.90
8261;DHT22;64115;50.170;8.242;2023-12-22T11:26:17;5.90;99.90
8261;DHT22;64115;50.170;8.242;2023-12-22T11:28:48;5.90;99.90
8261;DHT22;64115;50.170;8.242;2023-12-22T11:31:15;5.90;99.90
8261;DHT22;64115;50.170;8.242;2023-12-22T11:33:43;5.90;99.90
8261;DHT22;64115;50.170;8.242;2023-12-22T11:36:11;5.90;99.90
8261;DHT22;64115;50.170;8.242;2023-12-22T11:38:38;5.90;99.90
8261;DHT22;64115;50.170;8.242;2023-12-22T11:41:07;5.90;99.90
8261;DHT22;64115;50.170;8.242;2023-12-22T11:43:35;5.90;99.90
8261;DHT22;64115;50.170;8.242;2023-12-22T11:46:04;5.90;99.90
8261;DHT22;64115;50.170;8.242;2023-12-22T11:48:31;5.90;99.90
8261;DHT22;64115;50.170;8.242;2023-12-22T11:50:59;5.90;99.90
8261;DHT22;64115;50.170;8.242;2023-12-22T11:53:31;5.90;99.90
8261;DHT22;64115;50.170;8.242;2023-12-22T11:56:00;5.90;99.90
8261;DHT22;64115;50.170;8.242;2023-12-22T11:58:38;5.90;99.90
8261;DHT22;64115;50.170;8.242;2023-12-22T12:01:08;5.90;99.90
8261;DHT22;64115;50.170;8.242;2023-12-22T12:03:41;5.90;99.90
8261;DHT22;64115;50.170;8.242;2023-12-22T12:06:15;5.90;99.90
8261;DHT22;64115;50.170;8.242;2023-12-22T12:08:42;5.90;99.90
8261;DHT22;64115;50.170;8.242;2023-12-22T12:11:09;5.90;99.90
8261;DHT22;64115;50.170;8.242;2023-12-22T12:13:41;5.90;99.90
8261;DHT22;64115;50.170;8.242;2023-12-22T12:16:10;5.90;99.90
8261;DHT22;64115;50.170;8.242;2023-12-22T12:18:38;5.90;99.90
8261;DHT22;64115;50.170;8.242;2023-12-22T12:21:06;6.00;99.90
8261;DHT22;64115;50.170;8.242;2023-12-22T12:23:33;6.00;99.90
8261;DHT22;64115;50.170;8.242;2023-12-22T12:26:00;6.10;99.90
8261;DHT22;64115;50.170;8.242;2023-12-22T12:28:29;6.20;99.90
8261;DHT22;64115;50.170;8.242;2023-12-22T12:30:58;6.20;99.90
8261;DHT22;64115;50.170;8.242;2023-12-22T12:33:27;6.20;99.90
8261;DHT22;64115;50.170;8.242;2023-12-22T12:35:56;6.30;99.90
8261;DHT22;64115;50.170;8.242;2023-12-22T12:38:43;6.40;99.90
8261;DHT22;64115;50.170;8.242;2023-12-22T12:41:10;6.40;99.90
8261;DHT22;64115;50.170;8.242;2023-12-22T12:43:42;6.40;99.90
8261;DHT22;64115;50.170;8.242;2023-12-22T12:46:09;6.40;99.90
8261;DHT22;64115;50.170;8.242;2023-12-22T12:48:37;6.40;99.90
8261;DHT22;64115;50.170;8.242;2023-12-22T12:51:06;6.40;99.90
8261;DHT22;64115;50.170;8.242;2023-12-22T12:53:34;6.40;99.90
8261;DHT22;64115;50.170;8.242;2023-12-22T12:56:03;6.40;99.90
8261;DHT22;64115;50.170;8.242;2023-12-22T12:58:31;6.40;99.90
8261;DHT22;64115;50.170;8.242;2023-12-22T13:01:05;6.40;99.90
8261;DHT22;64115;50.170;8.242;2023-12-22T13:03:32;6.40;99.90
8261;DHT22;64115;50.170;8.242;2023-12-22T13:06:09;6.40;99.90
8261;DHT22;64115;50.170;8.242;2023-12-22T13:08:36;6.40;99.90
8261;DHT22;64115;50.170;8.242;2023-12-22T13:11:06;6.50;99.90
8261;DHT22;64115;50.170;8.242;2023-12-22T13:13:41;6.50;99.90
8261;DHT22;64115;50.170;8.242;2023-12-22T13:16:08;6.50;99.90
8261;DHT22;64115;50.170;8.242;2023-12-22T13:18:35;6.50;99.90
8261;DHT22;64115;50.170;8.242;2023-12-22T13:21:03;6.50;99.90
8261;DHT22;64115;50.170;8.242;2023-12-22T13:23:31;6.60;99.90
8261;DHT22;64115;50.170;8.242;2023-12-22T13:25:58;6.60;99.90
8261;DHT22;64115;50.170;8.242;2023-12-22T13:28:25;6.60;99.90
8261;DHT22;64115;50.170;8.242;2023-12-22T13:30:52;6.60;99.90
8261;DHT22;64115;50.170;8.242;2023-12-22T13:33:19;6.60;99.90
8261;DHT22;64115;50.170;8.242;2023-12-22T13:35:47;6.60;99.90
8261;DHT22;64115;50.170;8.242;2023-12-22T13:38:14;6.60;99.90
8261;DHT22;64115;50.170;8.242;2023-12-22T13:40:45;6.60;99.90
8261;DHT22;64115;50.170;8.242;2023-12-22T13:43:12;6.70;99.90
8261;DHT22;64115;50.170;8.242;2023-12-22T13:45:39;6.60;99.90
8261;DHT22;64115;50.170;8.242;2023-12-22T13:48:07;6.70;99.90
8261;DHT22;64115;50.170;8.242;2023-12-22T13:50:34;6.70;99.90
8261;DHT22;64115;50.170;8.242;2023-12-22T13:53:07;6.80;99.90
8261;DHT22;64115;50.170;8.242;2023-12-22T13:55:35;6.70;99.90
8261;DHT22;64115;50.170;8.242;2023-12-22T13:58:04;6.80;99.90
8261;DHT22;64115;50.170;8.242;2023-12-22T14:00:31;6.80;99.90
8261;DHT22;64115;50.170;8.242;2023-12-22T14:02:58;6.70;99.90
8261;DHT22;64115;50.170;8.242;2023-12-22T14:05:24;6.80;99.90
8261;DHT22;64115;50.170;8.242;2023-12-22T14:07:52;6.80;99.90
8261;DHT22;64115;50.170;8.242;2023-12-22T14:10:19;6.80;99.90
8261;DHT22;64115;50.170;8.242;2023-12-22T14:12:45;6.80;99.90
8261;DHT22;64115;50.170;8.242;2023-12-22T14:15:14;6.80;99.90
8261;DHT22;64115;50.170;8.242;2023-12-22T14:17:40;6.80;99.90
8261;DHT22;64115;50.170;8.242;2023-12-22T14:20:08;6.80;99.90
8261;DHT22;64115;50.170;8.242;2023-12-22T14:22:36;6.80;99.90
8261;DHT22;64115;50.170;8.242;2023-12-22T14:25:03;6.80;99.90
8261;DHT22;64115;50.170;8.242;2023-12-22T14:27:30;6.80;99.90
8261;DHT22;64115;50.170;8.242;2023-12-22T14:29:57;6.80;99.90
8261;DHT22;64115;50.170;8.242;2023-12-22T14:32:25;6.80;99.90
8261;DHT22;64115;50.170;8.242;2023-12-22T14:34:52;6.80;99.90
8261;DHT22;64115;50.170;8.242;2023-12-22T14:37:19;6.80;99.90
8261;DHT22;64115;50.170;8.242;2023-12-22T14:39:46;6.80;99.90
8261;DHT22;64115;50.170;8.242;2023-12-22T14:42:13;6.80;99.90
8261;DHT22;64115;50.170;8.242;2023-12-22T14:44:40;6.80;99.90
8261;DHT22;64115;50.170;8.242;2023-12-22T14:47:07;6.80;99.90
8261;DHT22;64115;50.170;8.242;2023-12-22T14:49:35;6.90;99.90
8261;DHT22;64115;50.170;8.242;2023-12-22T14:52:02;6.90;99.90
8261;DHT22;64115;50.170;8.242;2023-12-22T14:54:28;6.90;99.90
8261;DHT22;64115;50.170;8.242;2023-12-22T14:56:55;6.90;99.90
8261;DHT22;64115;50.170;8.242;2023-12-22T14:59:22;7.00;99.90
8261;DHT22;64115;50.170;8.242;2023-12-22T15:01:49;7.00;99.90
8261;DHT22;64115;50.170;8.242;2023-12-22T15:04:15;7.00;99.90
8261;DHT22;64115;50.170;8.242;2023-12-22T15:06:46;7.00;99.90
8261;DHT22;64115;50.170;8.242;2023-12-22T15:09:13;7.00;99.90
8261;DHT22;64115;50.170;8.242;2023-12-22T15:11:42;7.00;99.90
8261;DHT22;64115;50.170;8.242;2023-12-22T15:14:09;7.00;99.90
8261;DHT22;64115;50.170;8.242;2023-12-22T15:16:39;7.10;99.90
8261;DHT22;64115;50.170;8.242;2023-12-22T15:19:06;7.10;99.90
8261;DHT22;64115;50.170;8.242;2023-12-22T15:21:33;7.10;99.90
8261;DHT22;64115;50.170;8.242;2023-12-22T15:24:01;7.10;99.90
8261;DHT22;64115;50.170;8.242;2023-12-22T15:26:28;7.00;99.90
8261;DHT22;64115;50.170;8.242;2023-12-22T15:28:55;7.00;99.90
8261;DHT22;64115;50.170;8.242;2023-12-22T15:31:22;7.10;99.90
8261;DHT22;64115;50.170;8.242;2023-12-22T15:33:50;7.10;99.90
8261;DHT22;64115;50.170;8.242;2023-12-22T15:36:17;7.00;99.90
8261;DHT22;64115;50.170;8.242;2023-12-22T15:38:44;7.10;99.90
8261;DHT22;64115;50.170;8.242;2023-12-22T15:41:12;7.00;99.90
8261;DHT22;64115;50.170;8.242;2023-12-22T15:43:39;7.00;99.90
8261;DHT22;64115;50.170;8.242;2023-12-22T15:46:07;7.00;99.90
8261;DHT22;64115;50.170;8.242;2023-12-22T15:48:34;7.00;99.90
8261;DHT22;64115;50.170;8.242;2023-12-22T15:51:05;7.00;99.90
8261;DHT22;64115;50.170;8.242;2023-12-22T15:53:32;7.00;99.90
8261;DHT22;64115;50.170;8.242;2023-12-22T15:56:04;7.00;99.90
8261;DHT22;64115;50.170;8.242;2023-12-22T15:58:33;7.00;99.90
8261;DHT22;64115;50.170;8.242;2023-12-22T16:01:00;7.00;99.90
8261;DHT22;64115;50.170;8.242;2023-12-22T16:03:27;7.00;99.90
8261;DHT22;64115;50.170;8.242;2023-12-22T16:05:54;7.00;99.90